createdAt,value
2022-08-22T00:02:30.819Z,14.35
2022-08-22T00:03:04.494Z,18.03
2022-08-22T00:05:45.217Z,14.31
2022-08-22T00:09:01.021Z,14.37
2022-08-22T00:12:15.954Z,14.25
2022-08-22T00:15:42.286Z,14.32
2022-08-22T00:18:56.503Z,14.31
2022-08-22T00:22:04.399Z,14.24
2022-08-22T00:25:24.758Z,14.28
2022-08-22T00:28:35.015Z,14.06
2022-08-22T00:31:43.702Z,13.96
2022-08-22T00:34:55.444Z,14.02
2022-08-22T00:38:04.258Z,14.25
2022-08-22T00:41:19.074Z,14.27
2022-08-22T00:44:40.739Z,14.15
2022-08-22T00:47:58.299Z,14.22
2022-08-22T00:51:31.398Z,13.93
2022-08-22T00:54:52.122Z,14.02
2022-08-22T00:58:27.641Z,13.85
2022-08-22T01:01:43.722Z,13.82
2022-08-22T01:04:59.764Z,13.70
2022-08-22T01:08:24.697Z,13.59
2022-08-22T01:11:50.359Z,13.63
2022-08-22T01:14:58.154Z,13.75
2022-08-22T01:18:24.449Z,14.17
2022-08-22T01:22:00.978Z,14.11
2022-08-22T01:28:52.880Z,13.90
2022-08-22T01:32:27.183Z,14.10
2022-08-22T01:35:59.385Z,14.06
2022-08-22T01:39:34.829Z,13.90
2022-08-22T01:42:49.219Z,13.94
2022-08-22T01:46:21.582Z,13.87
2022-08-22T01:49:30.607Z,13.75
2022-08-22T01:52:43.533Z,13.68
2022-08-22T01:55:59.775Z,13.58
2022-08-22T01:59:11.078Z,13.45
2022-08-22T02:02:28.487Z,13.34
2022-08-22T02:05:37.770Z,13.45
2022-08-22T02:08:48.390Z,13.32
2022-08-22T02:11:55.964Z,13.18
2022-08-22T02:15:08.658Z,13.27
2022-08-22T02:18:18.109Z,13.32
2022-08-22T02:21:27.600Z,13.25
2022-08-22T02:24:45.955Z,13.14
2022-08-22T02:27:57.324Z,13.22
2022-08-22T02:31:07.902Z,13.21
2022-08-22T02:34:37.884Z,13.09
2022-08-22T02:37:49.848Z,13.09
2022-08-22T02:41:07.410Z,12.90
2022-08-22T02:44:21.465Z,13.04
2022-08-22T02:47:32.239Z,13.04
2022-08-22T02:50:44.380Z,13.13
2022-08-22T02:53:55.382Z,12.98
2022-08-22T02:57:06.836Z,12.90
2022-08-22T03:00:31.682Z,12.91
2022-08-22T03:03:41.342Z,12.70
2022-08-22T03:06:46.739Z,12.55
2022-08-22T03:09:57.732Z,12.56
2022-08-22T03:13:10.438Z,12.57
2022-08-22T03:16:19.581Z,12.52
2022-08-22T03:19:30.962Z,12.42
2022-08-22T03:22:43.538Z,12.46
2022-08-22T03:25:54.049Z,12.43
2022-08-22T03:29:05.435Z,12.40
2022-08-22T03:34:30.364Z,12.35
2022-08-22T03:37:40.493Z,12.29
2022-08-22T03:40:57.352Z,12.55
2022-08-22T03:44:12.702Z,12.53
2022-08-22T03:47:45.945Z,12.53
2022-08-22T03:51:19.618Z,12.23
2022-08-22T03:54:59.327Z,12.26
2022-08-22T03:58:32.212Z,12.36
2022-08-22T04:02:42.576Z,12.28
2022-08-22T04:06:12.607Z,12.37
2022-08-22T04:09:42.958Z,12.11
2022-08-22T04:13:05.706Z,11.89
2022-08-22T04:16:24.804Z,12.21
2022-08-22T04:19:41.917Z,12.20
2022-08-22T04:23:13.956Z,12.23
2022-08-22T04:26:22.439Z,12.28
2022-08-22T04:29:32.644Z,12.23
2022-08-22T04:32:41.645Z,12.31
2022-08-22T04:35:52.736Z,12.23
2022-08-22T04:39:01.442Z,12.24
2022-08-22T04:42:31.234Z,12.31
2022-08-22T04:45:40.802Z,12.62
2022-08-22T04:48:51.855Z,12.60
2022-08-22T04:52:00.587Z,12.58
2022-08-22T04:55:27.421Z,12.50
2022-08-22T04:58:40.834Z,12.63
2022-08-22T05:01:47.475Z,12.41
2022-08-22T05:04:55.989Z,13.23
2022-08-22T05:08:02.821Z,12.60
2022-08-22T05:11:11.157Z,13.40
2022-08-22T05:14:19.264Z,14.23
2022-08-22T05:17:24.062Z,14.15
2022-08-22T05:20:30.011Z,14.25
2022-08-22T05:23:38.348Z,13.28
2022-08-22T05:26:45.050Z,12.68
2022-08-22T05:29:51.848Z,13.04
2022-08-22T05:33:00.253Z,13.08
2022-08-22T05:36:09.097Z,13.16
2022-08-22T05:39:15.766Z,14.66
2022-08-22T05:42:27.537Z,13.43
2022-08-22T05:45:32.297Z,13.62
2022-08-22T05:48:42.127Z,13.63
2022-08-22T05:52:03.951Z,13.75
2022-08-22T05:55:24.594Z,13.88
2022-08-22T05:58:52.099Z,14.26
2022-08-22T06:02:04.402Z,14.61
2022-08-22T06:05:12.036Z,15.84
2022-08-22T06:08:18.986Z,14.86
2022-08-22T06:11:33.590Z,16.26
2022-08-22T06:14:45.240Z,15.69
2022-08-22T06:17:52.483Z,16.42
2022-08-22T06:20:59.367Z,16.72
2022-08-22T06:24:05.464Z,15.80
2022-08-22T06:27:15.317Z,16.29
2022-08-22T06:30:20.740Z,15.98
2022-08-22T06:33:27.754Z,16.12
2022-08-22T06:36:32.973Z,16.22
2022-08-22T06:39:41.021Z,16.87
2022-08-22T06:42:47.031Z,16.78
2022-08-22T06:45:53.003Z,16.86
2022-08-22T06:48:58.275Z,17.09
2022-08-22T06:52:08.537Z,17.30
2022-08-22T06:55:12.203Z,18.30
2022-08-22T06:58:18.217Z,18.39
2022-08-22T07:01:25.960Z,17.94
2022-08-22T07:04:29.561Z,19.16
2022-08-22T07:07:33.081Z,18.57
2022-08-22T07:10:37.164Z,18.53
2022-08-22T07:13:46.781Z,18.48
2022-08-22T07:17:01.613Z,19.59
2022-08-22T07:20:10.702Z,19.34
2022-08-22T07:23:26.521Z,19.74
2022-08-22T07:26:40.329Z,19.43
2022-08-22T07:29:49.402Z,19.96
2022-08-22T07:33:26.104Z,20.02
2022-08-22T07:36:31.426Z,19.75
2022-08-22T07:39:39.746Z,19.44
2022-08-22T07:42:50.776Z,20.09
2022-08-22T07:45:59.920Z,19.74
2022-08-22T07:49:13.534Z,20.45
2022-08-22T07:52:17.474Z,20.79
2022-08-22T07:55:24.160Z,20.09
2022-08-22T07:58:31.573Z,20.26
2022-08-22T08:01:36.050Z,21.50
2022-08-22T08:04:42.408Z,20.88
2022-08-22T08:07:47.857Z,21.53
2022-08-22T08:10:54.446Z,20.90
2022-08-22T08:14:02.647Z,21.12
2022-08-22T08:17:10.960Z,21.85
2022-08-22T08:20:18.645Z,21.92
2022-08-22T08:23:23.420Z,21.20
2022-08-22T08:26:33.522Z,21.72
2022-08-22T08:29:37.009Z,21.72
2022-08-22T08:32:42.859Z,22.12
2022-08-22T08:36:03.290Z,21.62
2022-08-22T08:39:15.784Z,22.81
2022-08-22T08:42:59.062Z,22.57
2022-08-22T08:46:25.486Z,22.77
2022-08-22T08:49:43.127Z,23.23
2022-08-22T08:53:01.237Z,22.75
2022-08-22T08:56:16.604Z,22.58
2022-08-22T08:59:44.233Z,23.23
2022-08-22T09:02:55.319Z,23.01
2022-08-22T09:06:42.325Z,22.49
2022-08-22T09:10:09.656Z,22.71
2022-08-22T09:13:34.550Z,23.72
2022-08-22T09:17:03.040Z,22.97
2022-08-22T09:20:25.531Z,23.17
2022-08-22T09:24:08.239Z,23.59
2022-08-22T09:27:19.477Z,23.44
2022-08-22T09:34:43.065Z,22.70
2022-08-22T09:38:14.305Z,22.93
2022-08-22T09:41:37.221Z,22.51
2022-08-22T09:45:00.558Z,22.64
2022-08-22T09:48:12.640Z,23.06
2022-08-22T09:51:32.410Z,22.97
2022-08-22T09:54:41.883Z,23.23
2022-08-22T09:58:01.152Z,22.76
2022-08-22T10:01:13.747Z,22.94
2022-08-22T10:04:44.514Z,23.14
2022-08-22T10:08:13.893Z,22.88
2022-08-22T10:11:23.853Z,23.75
2022-08-22T10:14:43.012Z,23.11
2022-08-22T10:18:07.557Z,22.77
2022-08-22T10:21:23.761Z,22.63
2022-08-22T10:24:44.078Z,23.13
2022-08-22T10:28:10.565Z,23.10
2022-08-22T10:31:34.188Z,22.88
2022-08-22T10:34:46.733Z,23.89
2022-08-22T10:37:58.154Z,23.02
2022-08-22T10:41:14.062Z,23.96
2022-08-22T10:44:24.377Z,24.10
2022-08-22T10:47:37.139Z,22.94
2022-08-22T10:50:44.226Z,23.65
2022-08-22T10:54:05.198Z,23.51
2022-08-22T10:57:29.147Z,23.51
2022-08-22T11:00:46.410Z,23.01
2022-08-22T11:04:03.568Z,23.97
2022-08-22T11:07:21.873Z,24.29
2022-08-22T11:10:35.789Z,24.47
2022-08-22T11:13:49.729Z,23.81
2022-08-22T11:17:27.536Z,24.11
2022-08-22T11:20:40.866Z,23.91
2022-08-22T11:23:48.286Z,24.11
2022-08-22T11:27:01.682Z,23.65
2022-08-22T11:30:18.292Z,24.60
2022-08-22T11:33:46.199Z,24.36
2022-08-22T11:36:54.423Z,24.44
2022-08-22T11:40:15.872Z,23.69
2022-08-22T11:44:01.386Z,23.85
2022-08-22T11:47:13.321Z,24.97
2022-08-22T11:50:26.308Z,24.18
2022-08-22T11:53:37.093Z,23.56
2022-08-22T11:56:48.934Z,23.73
2022-08-22T12:00:07.819Z,23.82
2022-08-22T12:03:43.419Z,24.59
2022-08-22T12:07:03.789Z,24.47
2022-08-22T12:10:14.083Z,24.86
2022-08-22T12:13:34.150Z,25.21
2022-08-22T12:16:47.681Z,23.56
2022-08-22T12:20:20.871Z,23.35
2022-08-22T12:23:52.317Z,23.67
2022-08-22T12:27:39.223Z,23.94
2022-08-22T12:31:09.094Z,24.37
2022-08-22T12:34:20.311Z,24.10
2022-08-22T12:38:21.207Z,24.11
2022-08-22T12:41:48.740Z,24.46
2022-08-22T12:45:15.971Z,24.59
2022-08-22T12:48:45.233Z,24.92
2022-08-22T12:52:08.759Z,24.96
2022-08-22T12:55:27.766Z,24.77
2022-08-22T12:58:45.277Z,24.97
2022-08-22T13:01:56.721Z,24.76
2022-08-22T13:05:04.185Z,24.19
2022-08-22T13:08:13.267Z,24.47
2022-08-22T13:11:23.665Z,24.11
2022-08-22T13:14:28.997Z,24.08
2022-08-22T13:17:33.476Z,24.74
2022-08-22T13:20:43.389Z,24.48
2022-08-22T13:23:53.159Z,23.77
2022-08-22T13:27:05.772Z,24.03
2022-08-22T13:30:13.368Z,24.02
2022-08-22T13:33:22.816Z,24.17
2022-08-22T13:36:27.877Z,24.76
2022-08-22T13:39:36.602Z,24.44
2022-08-22T13:42:47.989Z,24.46
2022-08-22T13:45:55.617Z,24.45
2022-08-22T13:49:02.553Z,24.04
2022-08-22T13:52:29.878Z,24.55
2022-08-22T13:55:42.889Z,24.56
2022-08-22T13:58:51.327Z,24.76
2022-08-22T14:02:01.980Z,25.16
2022-08-22T14:05:09.631Z,23.85
2022-08-22T14:08:18.740Z,24.05
2022-08-22T14:11:32.789Z,24.31
2022-08-22T14:14:41.875Z,24.46
2022-08-22T14:17:58.376Z,23.70
2022-08-22T14:21:42.414Z,24.90
2022-08-22T14:24:58.108Z,24.19
2022-08-22T14:28:09.747Z,24.34
2022-08-22T14:31:15.573Z,24.48
2022-08-22T14:34:27.094Z,24.36
2022-08-22T14:37:38.779Z,24.14
2022-08-22T14:40:44.980Z,24.09
2022-08-22T14:43:53.789Z,23.78
2022-08-22T14:47:03.845Z,23.82
2022-08-22T14:50:11.973Z,23.98
2022-08-22T14:53:26.310Z,24.06
2022-08-22T14:56:31.152Z,23.85
2022-08-22T14:59:50.088Z,23.76
2022-08-22T15:03:06.625Z,23.65
2022-08-22T15:06:12.800Z,23.82
2022-08-22T15:09:31.858Z,23.85
2022-08-22T15:12:38.618Z,23.68
2022-08-22T15:15:52.528Z,23.89
2022-08-22T15:19:00.071Z,24.11
2022-08-22T15:22:13.708Z,23.85
2022-08-22T15:25:21.702Z,23.95
2022-08-22T15:28:26.015Z,24.08
2022-08-22T15:34:35.642Z,24.10
2022-08-22T15:37:56.887Z,24.13
2022-08-22T15:41:36.047Z,24.50
2022-08-22T15:44:44.376Z,24.53
2022-08-22T15:47:52.346Z,24.57
2022-08-22T15:51:03.449Z,24.09
2022-08-22T15:54:24.307Z,24.17
2022-08-22T15:57:38.895Z,24.29
2022-08-22T16:00:45.302Z,24.36
2022-08-22T16:03:56.725Z,24.30
2022-08-22T16:07:05.444Z,23.91
2022-08-22T16:10:33.749Z,24.17
2022-08-22T16:13:42.094Z,23.85
2022-08-22T16:17:02.422Z,23.87
2022-08-22T16:20:44.114Z,23.83
2022-08-22T16:24:24.974Z,23.69
2022-08-22T16:27:31.424Z,23.77
2022-08-22T16:30:38.327Z,23.64
2022-08-22T16:33:43.912Z,23.72
2022-08-22T16:36:55.243Z,23.46
2022-08-22T16:40:14.565Z,23.70
2022-08-22T16:43:28.820Z,23.65
2022-08-22T16:46:44.643Z,23.63
2022-08-22T16:50:00.177Z,23.56
2022-08-22T16:53:08.012Z,23.55
2022-08-22T16:56:23.140Z,23.35
2022-08-22T16:59:44.556Z,23.29
2022-08-22T17:03:04.541Z,23.16
2022-08-22T17:06:23.163Z,23.28
2022-08-22T17:09:51.090Z,22.63
2022-08-22T17:13:18.408Z,23.04
2022-08-22T17:16:40.837Z,22.97
2022-08-22T17:20:02.068Z,22.85
2022-08-22T17:23:29.707Z,22.82
2022-08-22T17:26:48.878Z,22.76
2022-08-22T17:30:04.823Z,22.70
2022-08-22T17:33:23.465Z,22.65
2022-08-22T17:36:46.780Z,22.63
2022-08-22T17:40:03.386Z,22.50
2022-08-22T17:43:48.888Z,22.39
2022-08-22T17:47:00.783Z,22.24
2022-08-22T17:50:14.213Z,22.31
2022-08-22T17:53:31.695Z,22.32
2022-08-22T17:56:44.844Z,22.10
2022-08-22T17:59:51.523Z,22.07
2022-08-22T18:03:01.360Z,22.03
2022-08-22T18:06:11.228Z,21.93
2022-08-22T18:09:26.907Z,21.96
2022-08-22T18:12:35.779Z,21.75
2022-08-22T18:15:46.101Z,21.83
2022-08-22T18:18:55.812Z,21.60
2022-08-22T18:22:06.145Z,21.11
2022-08-22T18:25:30.414Z,21.19
2022-08-22T18:28:41.855Z,20.91
2022-08-22T18:31:54.214Z,20.96
2022-08-22T18:35:06.512Z,21.22
2022-08-22T18:38:21.214Z,20.74
2022-08-22T18:41:33.238Z,20.94
2022-08-22T18:44:39.010Z,20.50
2022-08-22T18:47:43.074Z,20.38
2022-08-22T18:50:47.493Z,20.56
2022-08-22T18:53:59.487Z,20.50
2022-08-22T18:57:23.714Z,20.51
2022-08-22T19:00:49.385Z,20.71
2022-08-22T19:04:13.733Z,21.06
2022-08-22T19:07:45.189Z,20.67
2022-08-22T19:11:03.079Z,20.55
2022-08-22T19:14:18.569Z,20.41
2022-08-22T19:17:43.886Z,20.38
2022-08-22T19:21:39.306Z,20.27
2022-08-22T19:25:12.418Z,20.13
2022-08-22T19:28:37.471Z,19.97
2022-08-22T19:31:48.312Z,20.05
2022-08-22T19:35:15.823Z,19.85
2022-08-22T19:38:53.649Z,19.94
2022-08-22T19:41:59.476Z,19.71
2022-08-22T19:45:08.552Z,19.40
2022-08-22T19:48:14.603Z,19.49
2022-08-22T19:51:29.069Z,19.32
2022-08-22T19:54:35.174Z,19.46
2022-08-22T19:57:46.133Z,19.48
2022-08-22T20:00:57.154Z,19.32
2022-08-22T20:04:06.233Z,19.26
2022-08-22T20:07:15.978Z,18.70
2022-08-22T20:10:28.690Z,18.45
2022-08-22T20:13:37.030Z,18.74
2022-08-22T20:17:34.617Z,18.86
2022-08-22T20:20:55.008Z,18.73
2022-08-22T20:23:58.462Z,18.68
2022-08-22T20:27:13.927Z,18.66
2022-08-22T20:30:27.911Z,18.75
2022-08-22T20:33:58.957Z,18.53
2022-08-22T20:37:27.074Z,18.45
2022-08-22T20:40:55.355Z,18.46
2022-08-22T20:44:11.127Z,18.72
2022-08-22T20:47:21.286Z,17.82
2022-08-22T20:50:28.985Z,17.45
2022-08-22T20:53:35.073Z,17.44
2022-08-22T20:56:48.668Z,17.35
2022-08-22T21:00:05.123Z,17.10
2022-08-22T21:03:13.078Z,16.92
2022-08-22T21:06:23.922Z,16.79
2022-08-22T21:09:44.699Z,16.56
2022-08-22T21:13:12.326Z,16.64
2022-08-22T21:16:18.138Z,16.43
2022-08-22T21:19:26.412Z,16.10
2022-08-22T21:22:33.498Z,16.73
2022-08-22T21:25:50.664Z,16.18
2022-08-22T21:29:01.089Z,16.04
2022-08-22T21:34:43.604Z,15.80
2022-08-22T21:37:47.347Z,15.95
2022-08-22T21:40:50.610Z,16.46
2022-08-22T21:44:18.097Z,16.06
2022-08-22T21:47:43.548Z,16.01
2022-08-22T21:50:49.837Z,15.83
2022-08-22T21:54:17.717Z,16.01
2022-08-22T21:57:35.755Z,15.98
2022-08-22T22:00:49.413Z,16.25
2022-08-22T22:03:53.389Z,16.32
2022-08-22T22:06:57.991Z,15.83
2022-08-22T22:10:01.696Z,15.78
2022-08-22T22:13:17.411Z,15.55
2022-08-22T22:16:28.246Z,15.66
2022-08-22T22:19:32.727Z,15.23
2022-08-22T22:22:46.227Z,15.38
2022-08-22T22:25:57.380Z,15.28
2022-08-22T22:34:36.994Z,15.25
2022-08-22T22:37:41.891Z,15.08
2022-08-22T22:40:45.412Z,15.10
2022-08-22T22:43:50.930Z,15.10
2022-08-22T22:46:57.512Z,14.85
2022-08-22T22:50:02.016Z,14.94
2022-08-22T22:53:07.041Z,15.02
2022-08-22T22:56:16.071Z,14.85
2022-08-22T22:59:19.474Z,14.83
2022-08-22T23:02:28.395Z,14.68
2022-08-22T23:05:32.900Z,14.61
2022-08-22T23:08:37.549Z,14.43
2022-08-22T23:11:40.817Z,14.59
2022-08-22T23:14:44.437Z,14.59
2022-08-22T23:17:47.720Z,14.56
2022-08-22T23:20:50.962Z,14.33
2022-08-22T23:23:58.406Z,14.18
2022-08-22T23:27:02.043Z,14.23
2022-08-22T23:30:08.578Z,14.31
2022-08-22T23:33:11.977Z,14.44
2022-08-22T23:36:17.590Z,14.32
2022-08-22T23:39:24.382Z,14.34
2022-08-22T23:42:29.324Z,14.13
2022-08-22T23:45:32.520Z,14.21
2022-08-22T23:48:38.007Z,14.23
2022-08-22T23:51:42.698Z,14.40
2022-08-22T23:54:47.353Z,14.07
2022-08-22T23:57:58.064Z,13.73
